sensor_id;sensor_type;location;lat;lon;timestamp;P1;durP1;ratioP1;P2;durP2;ratioP2
36221;SDS011;22266;52.340;4.962;2023-03-03T00:00:52;11.50;;;11.50;;
36221;SDS011;22266;52.340;4.962;2023-03-03T00:03:20;14.25;;;14.00;;
36221;SDS011;22266;52.340;4.962;2023-03-03T00:05:49;14.00;;;13.50;;
36221;SDS011;22266;52.340;4.962;2023-03-03T00:08:17;20.75;;;15.00;;
36221;SDS011;22266;52.340;4.962;2023-03-03T00:10:45;11.00;;;9.50;;
36221;SDS011;22266;52.340;4.962;2023-03-03T00:13:14;12.75;;;12.00;;
36221;SDS011;22266;52.340;4.962;2023-03-03T00:15:42;13.75;;;12.25;;
36221;SDS011;22266;52.340;4.962;2023-03-03T00:18:29;11.50;;;11.50;;
36221;SDS011;22266;52.340;4.962;2023-03-03T00:21:02;11.00;;;11.00;;
36221;SDS011;22266;52.340;4.962;2023-03-03T00:23:30;11.50;;;10.75;;
36221;SDS011;22266;52.340;4.962;2023-03-03T00:26:01;8.50;;;8.50;;
36221;SDS011;22266;52.340;4.962;2023-03-03T00:28:44;11.75;;;11.75;;
36221;SDS011;22266;52.340;4.962;2023-03-03T00:31:15;11.25;;;8.00;;
36221;SDS011;22266;52.340;4.962;2023-03-03T00:34:03;1.25;;;1.25;;
36221;SDS011;22266;52.340;4.962;2023-03-03T00:36:43;8.00;;;8.00;;
36221;SDS011;22266;52.340;4.962;2023-03-03T00:39:13;14.75;;;10.25;;
36221;SDS011;22266;52.340;4.962;2023-03-03T00:41:52;11.25;;;8.00;;
36221;SDS011;22266;52.340;4.962;2023-03-03T00:44:35;11.00;;;5.00;;
36221;SDS011;22266;52.340;4.962;2023-03-03T00:47:12;7.50;;;5.50;;
36221;SDS011;22266;52.340;4.962;2023-03-03T00:52:37;5.25;;;5.00;;
36221;SDS011;22266;52.340;4.962;2023-03-03T00:55:06;6.00;;;5.00;;
36221;SDS011;22266;52.340;4.962;2023-03-03T00:57:33;6.50;;;6.50;;
36221;SDS011;22266;52.340;4.962;2023-03-03T01:00:00;6.50;;;5.00;;
36221;SDS011;22266;52.340;4.962;2023-03-03T01:02:28;8.25;;;5.25;;
36221;SDS011;22266;52.340;4.962;2023-03-03T01:04:56;6.75;;;5.00;;
36221;SDS011;22266;52.340;4.962;2023-03-03T01:07:22;5.50;;;5.50;;
36221;SDS011;22266;52.340;4.962;2023-03-03T01:09:49;9.25;;;6.00;;
36221;SDS011;22266;52.340;4.962;2023-03-03T01:12:15;8.75;;;5.25;;
36221;SDS011;22266;52.340;4.962;2023-03-03T01:14:42;6.25;;;4.75;;
36221;SDS011;22266;52.340;4.962;2023-03-03T01:17:11;8.50;;;6.00;;
36221;SDS011;22266;52.340;4.962;2023-03-03T01:19:38;4.75;;;4.75;;
36221;SDS011;22266;52.340;4.962;2023-03-03T01:22:04;4.00;;;4.00;;
36221;SDS011;22266;52.340;4.962;2023-03-03T01:24:31;4.00;;;4.00;;
36221;SDS011;22266;52.340;4.962;2023-03-03T01:26:58;7.50;;;5.00;;
36221;SDS011;22266;52.340;4.962;2023-03-03T01:29:25;0.00;;;0.00;;
36221;SDS011;22266;52.340;4.962;2023-03-03T01:31:51;4.75;;;4.00;;
36221;SDS011;22266;52.340;4.962;2023-03-03T01:34:18;8.00;;;4.00;;
36221;SDS011;22266;52.340;4.962;2023-03-03T01:36:44;11.00;;;8.00;;
36221;SDS011;22266;52.340;4.962;2023-03-03T01:39:10;13.25;;;12.25;;
36221;SDS011;22266;52.340;4.962;2023-03-03T01:41:37;14.50;;;12.00;;
36221;SDS011;22266;52.340;4.962;2023-03-03T01:44:06;17.75;;;15.50;;
36221;SDS011;22266;52.340;4.962;2023-03-03T01:46:35;21.00;;;19.25;;
36221;SDS011;22266;52.340;4.962;2023-03-03T01:49:15;23.00;;;21.25;;
36221;SDS011;22266;52.340;4.962;2023-03-03T01:51:54;27.50;;;21.50;;
36221;SDS011;22266;52.340;4.962;2023-03-03T01:54:29;24.50;;;21.00;;
36221;SDS011;22266;52.340;4.962;2023-03-03T01:57:02;27.00;;;22.50;;
36221;SDS011;22266;52.340;4.962;2023-03-03T01:59:35;28.75;;;24.00;;
36221;SDS011;22266;52.340;4.962;2023-03-03T02:02:06;24.75;;;22.25;;
36221;SDS011;22266;52.340;4.962;2023-03-03T02:04:34;23.75;;;22.00;;
36221;SDS011;22266;52.340;4.962;2023-03-03T02:07:01;26.50;;;22.00;;
36221;SDS011;22266;52.340;4.962;2023-03-03T02:10:22;25.50;;;17.50;;
36221;SDS011;22266;52.340;4.962;2023-03-03T02:15:17;25.00;;;22.25;;
36221;SDS011;22266;52.340;4.962;2023-03-03T02:17:44;21.25;;;20.25;;
36221;SDS011;22266;52.340;4.962;2023-03-03T02:20:26;18.50;;;18.00;;
36221;SDS011;22266;52.340;4.962;2023-03-03T02:22:57;26.00;;;23.00;;
36221;SDS011;22266;52.340;4.962;2023-03-03T02:25:30;19.00;;;18.50;;
36221;SDS011;22266;52.340;4.962;2023-03-03T02:28:07;23.50;;;17.75;;
36221;SDS011;22266;52.340;4.962;2023-03-03T02:30:36;21.25;;;17.50;;
36221;SDS011;22266;52.340;4.962;2023-03-03T02:33:04;18.00;;;17.25;;
36221;SDS011;22266;52.340;4.962;2023-03-03T02:35:33;17.25;;;13.50;;
36221;SDS011;22266;52.340;4.962;2023-03-03T02:46:33;19.50;;;18.50;;
36221;SDS011;22266;52.340;4.962;2023-03-03T02:49:02;15.75;;;15.25;;
36221;SDS011;22266;52.340;4.962;2023-03-03T02:51:30;21.00;;;19.75;;
36221;SDS011;22266;52.340;4.962;2023-03-03T02:53:57;21.25;;;17.75;;
36221;SDS011;22266;52.340;4.962;2023-03-03T02:56:26;12.50;;;11.50;;
36221;SDS011;22266;52.340;4.962;2023-03-03T02:58:54;10.00;;;10.00;;
36221;SDS011;22266;52.340;4.962;2023-03-03T03:01:20;17.00;;;14.00;;
36221;SDS011;22266;52.340;4.962;2023-03-03T03:03:49;22.00;;;17.75;;
36221;SDS011;22266;52.340;4.962;2023-03-03T03:06:19;14.00;;;14.00;;
36221;SDS011;22266;52.340;4.962;2023-03-03T03:08:46;16.75;;;14.25;;
36221;SDS011;22266;52.340;4.962;2023-03-03T03:11:12;18.00;;;10.50;;
36221;SDS011;22266;52.340;4.962;2023-03-03T03:13:39;17.50;;;14.00;;
36221;SDS011;22266;52.340;4.962;2023-03-03T03:16:06;20.00;;;13.50;;
36221;SDS011;22266;52.340;4.962;2023-03-03T03:18:33;23.50;;;15.75;;
36221;SDS011;22266;52.340;4.962;2023-03-03T03:21:10;15.75;;;14.50;;
36221;SDS011;22266;52.340;4.962;2023-03-03T03:23:39;18.00;;;16.25;;
36221;SDS011;22266;52.340;4.962;2023-03-03T03:26:06;17.25;;;14.50;;
36221;SDS011;22266;52.340;4.962;2023-03-03T03:28:33;19.00;;;14.50;;
36221;SDS011;22266;52.340;4.962;2023-03-03T03:31:01;15.00;;;11.00;;
36221;SDS011;22266;52.340;4.962;2023-03-03T03:33:28;14.75;;;14.25;;
36221;SDS011;22266;52.340;4.962;2023-03-03T03:35:56;11.00;;;11.00;;
36221;SDS011;22266;52.340;4.962;2023-03-03T03:38:24;16.75;;;12.00;;
36221;SDS011;22266;52.340;4.962;2023-03-03T03:40:53;17.00;;;13.50;;
36221;SDS011;22266;52.340;4.962;2023-03-03T03:43:20;13.75;;;11.00;;
36221;SDS011;22266;52.340;4.962;2023-03-03T03:45:47;15.50;;;12.25;;
36221;SDS011;22266;52.340;4.962;2023-03-03T03:48:14;16.25;;;14.00;;
36221;SDS011;22266;52.340;4.962;2023-03-03T03:50:44;11.25;;;9.50;;
36221;SDS011;22266;52.340;4.962;2023-03-03T03:53:12;14.25;;;10.00;;
36221;SDS011;22266;52.340;4.962;2023-03-03T03:55:39;14.25;;;11.00;;
36221;SDS011;22266;52.340;4.962;2023-03-03T03:58:06;23.50;;;17.25;;
36221;SDS011;22266;52.340;4.962;2023-03-03T04:00:32;13.75;;;11.25;;
36221;SDS011;22266;52.340;4.962;2023-03-03T04:03:00;11.75;;;11.75;;
36221;SDS011;22266;52.340;4.962;2023-03-03T04:05:27;10.75;;;10.75;;
36221;SDS011;22266;52.340;4.962;2023-03-03T04:07:54;11.50;;;10.25;;
36221;SDS011;22266;52.340;4.962;2023-03-03T04:10:21;13.00;;;8.25;;
36221;SDS011;22266;52.340;4.962;2023-03-03T04:12:47;10.50;;;10.00;;
36221;SDS011;22266;52.340;4.962;2023-03-03T04:15:14;12.75;;;11.50;;
36221;SDS011;22266;52.340;4.962;2023-03-03T04:17:41;13.50;;;11.75;;
36221;SDS011;22266;52.340;4.962;2023-03-03T04:20:10;9.25;;;7.25;;
36221;SDS011;22266;52.340;4.962;2023-03-03T04:22:42;12.50;;;11.50;;
36221;SDS011;22266;52.340;4.962;2023-03-03T04:25:11;10.25;;;8.50;;
36221;SDS011;22266;52.340;4.962;2023-03-03T04:27:41;14.00;;;11.75;;
36221;SDS011;22266;52.340;4.962;2023-03-03T04:30:09;11.25;;;10.75;;
36221;SDS011;22266;52.340;4.962;2023-03-03T04:32:38;11.00;;;10.75;;
36221;SDS011;22266;52.340;4.962;2023-03-03T04:35:08;15.00;;;12.00;;
36221;SDS011;22266;52.340;4.962;2023-03-03T04:37:38;12.75;;;10.00;;
36221;SDS011;22266;52.340;4.962;2023-03-03T04:40:05;8.75;;;7.25;;
36221;SDS011;22266;52.340;4.962;2023-03-03T04:42:35;5.50;;;5.50;;
36221;SDS011;22266;52.340;4.962;2023-03-03T04:45:02;6.50;;;6.50;;
36221;SDS011;22266;52.340;4.962;2023-03-03T04:47:31;10.00;;;8.00;;
36221;SDS011;22266;52.340;4.962;2023-03-03T04:49:58;8.00;;;7.00;;
36221;SDS011;22266;52.340;4.962;2023-03-03T04:52:27;8.00;;;8.00;;
36221;SDS011;22266;52.340;4.962;2023-03-03T04:54:54;16.25;;;11.25;;
36221;SDS011;22266;52.340;4.962;2023-03-03T04:57:21;7.50;;;7.25;;
36221;SDS011;22266;52.340;4.962;2023-03-03T04:59:48;11.50;;;11.50;;
36221;SDS011;22266;52.340;4.962;2023-03-03T05:02:14;14.00;;;11.00;;
36221;SDS011;22266;52.340;4.962;2023-03-03T05:04:41;11.75;;;11.50;;
36221;SDS011;22266;52.340;4.962;2023-03-03T05:07:08;14.25;;;13.50;;
36221;SDS011;22266;52.340;4.962;2023-03-03T05:09:34;7.50;;;7.50;;
36221;SDS011;22266;52.340;4.962;2023-03-03T05:12:01;8.50;;;6.50;;
36221;SDS011;22266;52.340;4.962;2023-03-03T05:14:28;11.00;;;8.00;;
36221;SDS011;22266;52.340;4.962;2023-03-03T05:16:56;10.00;;;10.00;;
36221;SDS011;22266;52.340;4.962;2023-03-03T05:19:23;8.50;;;7.50;;
36221;SDS011;22266;52.340;4.962;2023-03-03T05:21:50;11.00;;;7.75;;
36221;SDS011;22266;52.340;4.962;2023-03-03T05:24:17;9.00;;;9.00;;
36221;SDS011;22266;52.340;4.962;2023-03-03T05:26:44;10.25;;;10.00;;
36221;SDS011;22266;52.340;4.962;2023-03-03T05:29:10;9.50;;;8.50;;
36221;SDS011;22266;52.340;4.962;2023-03-03T05:31:36;10.25;;;10.00;;
36221;SDS011;22266;52.340;4.962;2023-03-03T05:34:03;12.75;;;9.50;;
36221;SDS011;22266;52.340;4.962;2023-03-03T05:36:29;11.25;;;9.25;;
36221;SDS011;22266;52.340;4.962;2023-03-03T05:38:56;9.50;;;9.50;;
36221;SDS011;22266;52.340;4.962;2023-03-03T05:41:22;10.00;;;10.00;;
36221;SDS011;22266;52.340;4.962;2023-03-03T05:43:49;10.50;;;10.50;;
36221;SDS011;22266;52.340;4.962;2023-03-03T05:46:15;5.00;;;5.00;;
36221;SDS011;22266;52.340;4.962;2023-03-03T05:48:42;6.50;;;6.50;;
36221;SDS011;22266;52.340;4.962;2023-03-03T05:51:09;5.50;;;5.00;;
36221;SDS011;22266;52.340;4.962;2023-03-03T05:53:35;13.00;;;11.50;;
36221;SDS011;22266;52.340;4.962;2023-03-03T05:56:02;8.00;;;8.00;;
36221;SDS011;22266;52.340;4.962;2023-03-03T05:58:29;6.00;;;6.00;;
36221;SDS011;22266;52.340;4.962;2023-03-03T06:00:56;8.25;;;7.75;;
36221;SDS011;22266;52.340;4.962;2023-03-03T06:03:22;9.75;;;9.00;;
36221;SDS011;22266;52.340;4.962;2023-03-03T06:05:49;11.50;;;9.50;;
36221;SDS011;22266;52.340;4.962;2023-03-03T06:08:16;10.25;;;8.25;;
36221;SDS011;22266;52.340;4.962;2023-03-03T06:10:42;10.75;;;10.75;;
36221;SDS011;22266;52.340;4.962;2023-03-03T06:13:11;11.25;;;11.25;;
36221;SDS011;22266;52.340;4.962;2023-03-03T06:15:37;9.50;;;8.50;;
36221;SDS011;22266;52.340;4.962;2023-03-03T06:18:04;10.00;;;10.00;;
36221;SDS011;22266;52.340;4.962;2023-03-03T06:20:31;16.75;;;12.00;;
36221;SDS011;22266;52.340;4.962;2023-03-03T06:22:58;10.50;;;8.75;;
36221;SDS011;22266;52.340;4.962;2023-03-03T06:25:24;10.50;;;8.25;;
36221;SDS011;22266;52.340;4.962;2023-03-03T06:27:50;10.25;;;9.50;;
36221;SDS011;22266;52.340;4.962;2023-03-03T06:30:17;15.00;;;9.00;;
36221;SDS011;22266;52.340;4.962;2023-03-03T06:32:44;7.50;;;7.50;;
36221;SDS011;22266;52.340;4.962;2023-03-03T06:35:11;11.25;;;11.00;;
36221;SDS011;22266;52.340;4.962;2023-03-03T06:37:38;8.75;;;8.75;;
36221;SDS011;22266;52.340;4.962;2023-03-03T06:40:05;15.00;;;13.25;;
36221;SDS011;22266;52.340;4.962;2023-03-03T06:42:32;14.00;;;12.25;;
36221;SDS011;22266;52.340;4.962;2023-03-03T06:44:58;9.00;;;9.00;;
36221;SDS011;22266;52.340;4.962;2023-03-03T06:47:25;11.75;;;11.75;;
36221;SDS011;22266;52.340;4.962;2023-03-03T06:49:51;9.75;;;8.00;;
36221;SDS011;22266;52.340;4.962;2023-03-03T06:52:19;9.75;;;8.75;;
36221;SDS011;22266;52.340;4.962;2023-03-03T06:54:49;10.25;;;10.25;;
36221;SDS011;22266;52.340;4.962;2023-03-03T06:57:32;15.50;;;11.75;;
36221;SDS011;22266;52.340;4.962;2023-03-03T07:00:13;8.00;;;8.00;;
36221;SDS011;22266;52.340;4.962;2023-03-03T07:02:53;9.25;;;8.75;;
36221;SDS011;22266;52.340;4.962;2023-03-03T07:05:25;10.75;;;8.00;;
36221;SDS011;22266;52.340;4.962;2023-03-03T07:07:57;14.00;;;13.50;;
36221;SDS011;22266;52.340;4.962;2023-03-03T07:10:25;11.00;;;11.00;;
36221;SDS011;22266;52.340;4.962;2023-03-03T07:12:53;14.75;;;12.25;;
36221;SDS011;22266;52.340;4.962;2023-03-03T07:15:29;11.50;;;10.00;;
36221;SDS011;22266;52.340;4.962;2023-03-03T07:17:59;7.00;;;7.00;;
36221;SDS011;22266;52.340;4.962;2023-03-03T07:20:37;10.75;;;9.75;;
36221;SDS011;22266;52.340;4.962;2023-03-03T07:23:10;11.75;;;11.75;;
36221;SDS011;22266;52.340;4.962;2023-03-03T07:25:42;12.25;;;10.00;;
36221;SDS011;22266;52.340;4.962;2023-03-03T07:28:17;9.00;;;9.00;;
36221;SDS011;22266;52.340;4.962;2023-03-03T07:30:49;10.25;;;10.25;;
36221;SDS011;22266;52.340;4.962;2023-03-03T07:35:55;7.50;;;7.50;;
36221;SDS011;22266;52.340;4.962;2023-03-03T07:40:51;10.75;;;8.00;;
36221;SDS011;22266;52.340;4.962;2023-03-03T07:43:30;10.00;;;8.00;;
36221;SDS011;22266;52.340;4.962;2023-03-03T07:46:13;8.00;;;8.00;;
36221;SDS011;22266;52.340;4.962;2023-03-03T07:48:52;11.00;;;8.00;;
36221;SDS011;22266;52.340;4.962;2023-03-03T07:51:22;10.50;;;7.50;;
36221;SDS011;22266;52.340;4.962;2023-03-03T07:53:50;8.00;;;8.00;;
36221;SDS011;22266;52.340;4.962;2023-03-03T07:56:26;8.00;;;6.50;;
36221;SDS011;22266;52.340;4.962;2023-03-03T07:58:56;4.75;;;4.75;;
36221;SDS011;22266;52.340;4.962;2023-03-03T08:01:40;4.00;;;4.00;;
36221;SDS011;22266;52.340;4.962;2023-03-03T08:04:11;7.00;;;4.00;;
36221;SDS011;22266;52.340;4.962;2023-03-03T08:06:59;7.00;;;5.50;;
36221;SDS011;22266;52.340;4.962;2023-03-03T08:09:37;7.00;;;5.00;;
36221;SDS011;22266;52.340;4.962;2023-03-03T08:12:12;7.25;;;5.00;;
36221;SDS011;22266;52.340;4.962;2023-03-03T08:14:47;8.25;;;8.00;;
36221;SDS011;22266;52.340;4.962;2023-03-03T08:17:21;6.25;;;5.00;;
36221;SDS011;22266;52.340;4.962;2023-03-03T08:19:49;7.50;;;7.50;;
36221;SDS011;22266;52.340;4.962;2023-03-03T08:22:18;6.50;;;5.00;;
36221;SDS011;22266;52.340;4.962;2023-03-03T08:24:47;7.00;;;7.00;;
36221;SDS011;22266;52.340;4.962;2023-03-03T08:27:14;15.50;;;12.25;;
36221;SDS011;22266;52.340;4.962;2023-03-03T08:29:40;11.75;;;8.50;;
36221;SDS011;22266;52.340;4.962;2023-03-03T08:32:07;10.00;;;10.00;;
36221;SDS011;22266;52.340;4.962;2023-03-03T08:34:33;14.25;;;13.00;;
36221;SDS011;22266;52.340;4.962;2023-03-03T08:37:00;12.25;;;12.00;;
36221;SDS011;22266;52.340;4.962;2023-03-03T08:39:26;14.50;;;14.50;;
36221;SDS011;22266;52.340;4.962;2023-03-03T08:41:53;10.50;;;10.00;;
36221;SDS011;22266;52.340;4.962;2023-03-03T08:44:19;13.00;;;11.00;;
36221;SDS011;22266;52.340;4.962;2023-03-03T08:46:46;14.50;;;10.25;;
36221;SDS011;22266;52.340;4.962;2023-03-03T08:49:12;11.50;;;11.25;;
36221;SDS011;22266;52.340;4.962;2023-03-03T08:51:39;11.50;;;11.25;;
36221;SDS011;22266;52.340;4.962;2023-03-03T08:54:05;15.50;;;10.75;;
36221;SDS011;22266;52.340;4.962;2023-03-03T08:56:32;11.00;;;9.50;;
36221;SDS011;22266;52.340;4.962;2023-03-03T08:58:58;11.75;;;10.00;;
36221;SDS011;22266;52.340;4.962;2023-03-03T09:01:28;9.00;;;8.00;;
36221;SDS011;22266;52.340;4.962;2023-03-03T09:03:56;12.00;;;8.25;;
36221;SDS011;22266;52.340;4.962;2023-03-03T09:06:23;9.50;;;9.00;;
36221;SDS011;22266;52.340;4.962;2023-03-03T09:08:49;9.50;;;9.50;;
36221;SDS011;22266;52.340;4.962;2023-03-03T09:11:21;12.75;;;12.25;;
36221;SDS011;22266;52.340;4.962;2023-03-03T09:13:53;12.50;;;11.00;;
36221;SDS011;22266;52.340;4.962;2023-03-03T09:16:27;11.25;;;10.00;;
36221;SDS011;22266;52.340;4.962;2023-03-03T09:21:58;15.75;;;12.75;;
36221;SDS011;22266;52.340;4.962;2023-03-03T09:24:29;15.25;;;13.25;;
36221;SDS011;22266;52.340;4.962;2023-03-03T09:26:57;14.75;;;11.75;;
36221;SDS011;22266;52.340;4.962;2023-03-03T09:29:28;15.00;;;13.50;;
36221;SDS011;22266;52.340;4.962;2023-03-03T09:32:01;13.50;;;13.50;;
36221;SDS011;22266;52.340;4.962;2023-03-03T09:34:45;15.00;;;13.00;;
36221;SDS011;22266;52.340;4.962;2023-03-03T09:39:49;8.00;;;7.75;;
36221;SDS011;22266;52.340;4.962;2023-03-03T09:57:01;6.00;;;6.00;;
36221;SDS011;22266;52.340;4.962;2023-03-03T10:03:02;4.00;;;3.75;;
36221;SDS011;22266;52.340;4.962;2023-03-03T10:08:42;5.00;;;4.75;;
36221;SDS011;22266;52.340;4.962;2023-03-03T10:11:27;2.50;;;2.50;;
36221;SDS011;22266;52.340;4.962;2023-03-03T10:23:14;3.50;;;3.50;;
36221;SDS011;22266;52.340;4.962;2023-03-03T10:25:49;5.50;;;4.00;;
36221;SDS011;22266;52.340;4.962;2023-03-03T10:31:14;1.00;;;1.00;;
36221;SDS011;22266;52.340;4.962;2023-03-03T10:37:03;4.00;;;2.00;;
36221;SDS011;22266;52.340;4.962;2023-03-03T10:40:07;2.00;;;2.00;;
36221;SDS011;22266;52.340;4.962;2023-03-03T10:42:49;1.75;;;1.00;;
36221;SDS011;22266;52.340;4.962;2023-03-03T11:05:50;0.00;;;0.00;;
36221;SDS011;22266;52.340;4.962;2023-03-03T11:08:45;1.00;;;1.00;;
36221;SDS011;22266;52.340;4.962;2023-03-03T11:14:28;1.25;;;1.25;;
36221;SDS011;22266;52.340;4.962;2023-03-03T11:20:11;1.00;;;1.00;;
36221;SDS011;22266;52.340;4.962;2023-03-03T11:23:03;1.00;;;1.00;;
36221;SDS011;22266;52.340;4.962;2023-03-03T11:25:53;1.00;;;1.00;;
36221;SDS011;22266;52.340;4.962;2023-03-03T11:28:45;1.00;;;1.00;;
36221;SDS011;22266;52.340;4.962;2023-03-03T11:36:54;0.00;;;0.00;;
36221;SDS011;22266;52.340;4.962;2023-03-03T11:39:26;1.00;;;1.00;;
36221;SDS011;22266;52.340;4.962;2023-03-03T11:44:34;4.75;;;1.25;;
36221;SDS011;22266;52.340;4.962;2023-03-03T11:50:01;1.00;;;1.00;;
36221;SDS011;22266;52.340;4.962;2023-03-03T11:52:50;1.50;;;1.00;;
36221;SDS011;22266;52.340;4.962;2023-03-03T11:55:32;1.00;;;1.00;;
36221;SDS011;22266;52.340;4.962;2023-03-03T11:58:19;1.00;;;1.00;;
36221;SDS011;22266;52.340;4.962;2023-03-03T12:00:51;3.50;;;1.00;;
36221;SDS011;22266;52.340;4.962;2023-03-03T12:03:33;1.75;;;1.75;;
36221;SDS011;22266;52.340;4.962;2023-03-03T12:14:24;0.00;;;0.00;;
36221;SDS011;22266;52.340;4.962;2023-03-03T12:17:02;1.00;;;1.00;;
36221;SDS011;22266;52.340;4.962;2023-03-03T12:25:04;1.00;;;1.00;;
36221;SDS011;22266;52.340;4.962;2023-03-03T12:27:43;0.00;;;0.00;;
36221;SDS011;22266;52.340;4.962;2023-03-03T12:36:15;0.00;;;0.00;;
36221;SDS011;22266;52.340;4.962;2023-03-03T12:44:34;0.00;;;0.00;;
36221;SDS011;22266;52.340;4.962;2023-03-03T12:53:01;1.00;;;0.25;;
36221;SDS011;22266;52.340;4.962;2023-03-03T13:01:34;0.00;;;0.00;;
36221;SDS011;22266;52.340;4.962;2023-03-03T13:15:11;1.75;;;1.75;;
36221;SDS011;22266;52.340;4.962;2023-03-03T13:23:22;1.25;;;1.25;;
36221;SDS011;22266;52.340;4.962;2023-03-03T13:26:10;1.50;;;1.50;;
36221;SDS011;22266;52.340;4.962;2023-03-03T13:31:54;2.00;;;2.00;;
36221;SDS011;22266;52.340;4.962;2023-03-03T13:34:45;4.00;;;2.00;;
36221;SDS011;22266;52.340;4.962;2023-03-03T13:37:20;4.00;;;4.00;;
36221;SDS011;22266;52.340;4.962;2023-03-03T13:42:50;1.50;;;1.50;;
36221;SDS011;22266;52.340;4.962;2023-03-03T13:47:51;1.00;;;1.00;;
36221;SDS011;22266;52.340;4.962;2023-03-03T13:50:30;1.00;;;1.00;;
36221;SDS011;22266;52.340;4.962;2023-03-03T13:56:00;0.75;;;0.75;;
36221;SDS011;22266;52.340;4.962;2023-03-03T13:58:40;1.00;;;1.00;;
36221;SDS011;22266;52.340;4.962;2023-03-03T14:01:18;0.50;;;0.50;;
36221;SDS011;22266;52.340;4.962;2023-03-03T14:03:55;1.00;;;1.00;;
36221;SDS011;22266;52.340;4.962;2023-03-03T14:06:27;0.00;;;0.00;;
36221;SDS011;22266;52.340;4.962;2023-03-03T14:08:59;0.75;;;0.00;;
36221;SDS011;22266;52.340;4.962;2023-03-03T14:17:03;1.00;;;1.00;;
36221;SDS011;22266;52.340;4.962;2023-03-03T14:19:39;3.50;;;1.50;;
36221;SDS011;22266;52.340;4.962;2023-03-03T14:25:08;0.25;;;0.25;;
36221;SDS011;22266;52.340;4.962;2023-03-03T14:27:38;1.00;;;0.00;;
36221;SDS011;22266;52.340;4.962;2023-03-03T14:36:23;1.00;;;0.00;;
36221;SDS011;22266;52.340;4.962;2023-03-03T14:38:22;0.25;;;0.25;;
36221;SDS011;22266;52.340;4.962;2023-03-03T14:41:11;1.00;;;1.00;;
36221;SDS011;22266;52.340;4.962;2023-03-03T14:43:44;0.00;;;0.00;;
36221;SDS011;22266;52.340;4.962;2023-03-03T14:48:53;0.25;;;0.25;;
36221;SDS011;22266;52.340;4.962;2023-03-03T14:51:22;2.00;;;1.00;;
36221;SDS011;22266;52.340;4.962;2023-03-03T14:54:20;0.50;;;0.50;;
36221;SDS011;22266;52.340;4.962;2023-03-03T14:59:25;0.00;;;0.00;;
36221;SDS011;22266;52.340;4.962;2023-03-03T15:04:38;0.75;;;0.00;;
36221;SDS011;22266;52.340;4.962;2023-03-03T15:09:59;1.00;;;1.00;;
36221;SDS011;22266;52.340;4.962;2023-03-03T15:12:35;1.00;;;1.00;;
36221;SDS011;22266;52.340;4.962;2023-03-03T15:25:28;2.00;;;1.25;;
36221;SDS011;22266;52.340;4.962;2023-03-03T15:31:07;1.25;;;1.25;;
36221;SDS011;22266;52.340;4.962;2023-03-03T15:33:46;1.75;;;1.00;;
36221;SDS011;22266;52.340;4.962;2023-03-03T15:39:09;4.00;;;1.00;;
36221;SDS011;22266;52.340;4.962;2023-03-03T15:55:05;1.00;;;1.00;;
36221;SDS011;22266;52.340;4.962;2023-03-03T15:57:56;4.00;;;2.50;;
36221;SDS011;22266;52.340;4.962;2023-03-03T16:00:29;2.00;;;1.00;;
36221;SDS011;22266;52.340;4.962;2023-03-03T16:03:04;4.50;;;2.50;;
36221;SDS011;22266;52.340;4.962;2023-03-03T16:05:43;1.25;;;1.00;;
36221;SDS011;22266;52.340;4.962;2023-03-03T16:08:21;1.50;;;0.75;;
36221;SDS011;22266;52.340;4.962;2023-03-03T16:19:52;4.00;;;0.00;;
36221;SDS011;22266;52.340;4.962;2023-03-03T16:22:30;0.00;;;0.00;;
36221;SDS011;22266;52.340;4.962;2023-03-03T16:27:42;4.00;;;1.75;;
36221;SDS011;22266;52.340;4.962;2023-03-03T16:30:22;0.50;;;0.50;;
36221;SDS011;22266;52.340;4.962;2023-03-03T16:33:08;0.00;;;0.00;;
36221;SDS011;22266;52.340;4.962;2023-03-03T16:35:48;1.50;;;0.00;;
36221;SDS011;22266;52.340;4.962;2023-03-03T16:38:37;1.75;;;1.75;;
36221;SDS011;22266;52.340;4.962;2023-03-03T16:41:11;1.00;;;1.00;;
36221;SDS011;22266;52.340;4.962;2023-03-03T16:46:44;0.50;;;0.00;;
36221;SDS011;22266;52.340;4.962;2023-03-03T16:49:17;1.00;;;1.00;;
36221;SDS011;22266;52.340;4.962;2023-03-03T16:54:44;1.00;;;1.00;;
36221;SDS011;22266;52.340;4.962;2023-03-03T16:57:27;2.50;;;1.75;;
36221;SDS011;22266;52.340;4.962;2023-03-03T17:13:47;1.50;;;1.50;;
36221;SDS011;22266;52.340;4.962;2023-03-03T17:16:46;1.75;;;1.00;;
36221;SDS011;22266;52.340;4.962;2023-03-03T17:25:22;2.00;;;1.75;;
36221;SDS011;22266;52.340;4.962;2023-03-03T17:30:58;1.00;;;1.00;;
36221;SDS011;22266;52.340;4.962;2023-03-03T17:36:48;2.75;;;0.75;;
36221;SDS011;22266;52.340;4.962;2023-03-03T17:39:22;0.00;;;0.00;;
36221;SDS011;22266;52.340;4.962;2023-03-03T18:01:19;1.50;;;1.50;;
36221;SDS011;22266;52.340;4.962;2023-03-03T18:06:37;2.00;;;2.00;;
36221;SDS011;22266;52.340;4.962;2023-03-03T18:14:46;0.25;;;0.00;;
36221;SDS011;22266;52.340;4.962;2023-03-03T18:17:29;0.75;;;0.50;;
36221;SDS011;22266;52.340;4.962;2023-03-03T18:20:11;0.25;;;0.25;;
36221;SDS011;22266;52.340;4.962;2023-03-03T18:23:18;2.50;;;2.50;;
36221;SDS011;22266;52.340;4.962;2023-03-03T18:25:58;0.00;;;0.00;;
36221;SDS011;22266;52.340;4.962;2023-03-03T18:28:46;1.00;;;1.00;;
36221;SDS011;22266;52.340;4.962;2023-03-03T18:31:24;1.50;;;1.50;;
36221;SDS011;22266;52.340;4.962;2023-03-03T18:39:36;4.75;;;1.25;;
36221;SDS011;22266;52.340;4.962;2023-03-03T18:42:51;1.00;;;1.00;;
36221;SDS011;22266;52.340;4.962;2023-03-03T18:50:36;1.00;;;0.75;;
36221;SDS011;22266;52.340;4.962;2023-03-03T18:53:44;0.25;;;0.25;;
36221;SDS011;22266;52.340;4.962;2023-03-03T18:56:03;6.25;;;4.00;;
36221;SDS011;22266;52.340;4.962;2023-03-03T19:03:36;1.25;;;1.25;;
36221;SDS011;22266;52.340;4.962;2023-03-03T19:06:28;1.50;;;1.50;;
36221;SDS011;22266;52.340;4.962;2023-03-03T19:09:18;2.00;;;1.00;;
36221;SDS011;22266;52.340;4.962;2023-03-03T19:12:08;4.00;;;4.00;;
36221;SDS011;22266;52.340;4.962;2023-03-03T19:14:39;4.25;;;2.00;;
36221;SDS011;22266;52.340;4.962;2023-03-03T19:22:43;1.75;;;0.75;;
36221;SDS011;22266;52.340;4.962;2023-03-03T19:34:04;0.00;;;0.00;;
36221;SDS011;22266;52.340;4.962;2023-03-03T19:36:46;1.50;;;0.25;;
36221;SDS011;22266;52.340;4.962;2023-03-03T19:45:26;1.00;;;1.00;;
36221;SDS011;22266;52.340;4.962;2023-03-03T19:48:05;1.00;;;0.75;;
36221;SDS011;22266;52.340;4.962;2023-03-03T19:51:46;1.00;;;1.00;;
36221;SDS011;22266;52.340;4.962;2023-03-03T19:53:50;4.50;;;2.25;;
36221;SDS011;22266;52.340;4.962;2023-03-03T19:56:37;3.00;;;2.00;;
36221;SDS011;22266;52.340;4.962;2023-03-03T20:05:12;1.00;;;0.75;;
36221;SDS011;22266;52.340;4.962;2023-03-03T20:07:52;1.25;;;1.25;;
36221;SDS011;22266;52.340;4.962;2023-03-03T20:10:33;4.00;;;0.75;;
36221;SDS011;22266;52.340;4.962;2023-03-03T20:13:11;5.25;;;4.00;;
36221;SDS011;22266;52.340;4.962;2023-03-03T20:18:47;1.50;;;1.00;;
36221;SDS011;22266;52.340;4.962;2023-03-03T20:21:34;6.50;;;3.00;;
36221;SDS011;22266;52.340;4.962;2023-03-03T20:29:29;2.25;;;1.75;;
36221;SDS011;22266;52.340;4.962;2023-03-03T20:32:47;1.25;;;1.25;;
36221;SDS011;22266;52.340;4.962;2023-03-03T20:35:26;2.00;;;1.00;;
36221;SDS011;22266;52.340;4.962;2023-03-03T20:38:04;2.50;;;1.75;;
36221;SDS011;22266;52.340;4.962;2023-03-03T20:43:48;4.50;;;4.50;;
36221;SDS011;22266;52.340;4.962;2023-03-03T20:46:25;3.00;;;2.50;;
36221;SDS011;22266;52.340;4.962;2023-03-03T20:49:12;1.00;;;1.00;;
36221;SDS011;22266;52.340;4.962;2023-03-03T20:51:53;5.00;;;2.00;;
36221;SDS011;22266;52.340;4.962;2023-03-03T21:00:12;1.00;;;0.25;;
36221;SDS011;22266;52.340;4.962;2023-03-03T21:08:38;4.00;;;3.00;;